Tropical Cyclones
[Index]
Main Index Home Page Stock Weather Photos Extreme Storms Discussion Storm News and Storm Chasing Reports Tropical Cyclones / Hurricanes / Typhoons Weather Data and Links Wild Fires / Bushfires Weather Observation Techniques Weather Picture Catalogue Tornado Pictures and Reports Stock Video Footage and DVDs for sale
Season 2013-2014 Tropical Cyclone EDNA Track Map
Season 2013-2014 Summaries (Operational Data): [AU] [SIO] [SPAC] [SH]
<<- Previous TC | 2013-2014 Season | Next TC ->>

click for intensity scale information  Lat/long Grid: Show Hide

 Date Labels: Show Hide

Operational Tropical Cyclone Data : JTWC Advisories

Name: EDNA
Number: 1412

31 Jan 2014 00:00 UTC to 06 Feb 2014 06:00 UTC

    date/time    lat    long     hPa   cat  kts
2014-01-31 00   18.7   151.9    1010         15          
2014-01-31 06   19.8   152.6    1010         15          
2014-01-31 12   20.0   152.7    1010         15          
2014-01-31 18   20.1   152.8    1010         15          
2014-02-01 00   20.3   152.7    1004         25          
2014-02-01 06   20.5   152.6     998         25          
2014-02-01 12   20.7   152.2     998         25          
2014-02-01 18   20.6   151.4    1004         25          
2014-02-02 00   20.2   150.5     998         25          
2014-02-02 06   19.0   150.6    1004         25          
2014-02-02 12   17.5   150.7    1004         25          
2014-02-02 18   15.9   151.2    1004         25          
2014-02-03 00   14.6   152.6    1002         25          
2014-02-03 06   13.8   154.5     998         30          
2014-02-03 12   13.6   156.4    1000         30          
2014-02-03 18   13.7   157.6     998         30          
2014-02-04 00   14.6   159.1     998         30          
2014-02-04 06   16.0   160.8    1000         30          
2014-02-04 12   17.4   162.0     996    1    35          
2014-02-04 18   19.0   162.8     989    1    45          
2014-02-05 00   20.4   163.4     985    2    50          
2014-02-05 06   22.1   164.5     985    2    50          
2014-02-05 12   24.4   165.4     993    1    40          
2014-02-05 18   26.5   165.9     998    1    35          
2014-02-06 00   25.6   166.3     997         33          
2014-02-06 06   26.0   167.0    1001    1    35          
Winds are 10-min average.

Tropical cyclone tracks developed by Michael Bath using operational warnings and advisories and Google Maps.


[Australian Severe Weather index] [Copyright Notice] [Email Contacts] [Search This Site] [Privacy Policy]
Document: tropical_cyclone_edna.htm Updated: 2 May 2017